sensor_id;sensor_type;location;lat;lon;timestamp;P1;durP1;ratioP1;P2;durP2;ratioP2
35056;SDS011;21241;51.828;19.574;2023-07-31T00:01:07;4.00;;;3.70;;
35056;SDS011;21241;51.828;19.574;2023-07-31T00:03:34;4.10;;;3.80;;
35056;SDS011;21241;51.828;19.574;2023-07-31T00:06:02;4.10;;;3.80;;
35056;SDS011;21241;51.828;19.574;2023-07-31T00:08:30;4.20;;;3.80;;
35056;SDS011;21241;51.828;19.574;2023-07-31T00:10:58;3.90;;;3.60;;
35056;SDS011;21241;51.828;19.574;2023-07-31T00:13:25;4.30;;;4.00;;
35056;SDS011;21241;51.828;19.574;2023-07-31T00:15:53;4.70;;;4.30;;
35056;SDS011;21241;51.828;19.574;2023-07-31T00:18:21;4.40;;;4.00;;
35056;SDS011;21241;51.828;19.574;2023-07-31T00:20:49;4.20;;;3.90;;
35056;SDS011;21241;51.828;19.574;2023-07-31T00:23:16;4.10;;;3.80;;
35056;SDS011;21241;51.828;19.574;2023-07-31T00:25:44;4.60;;;4.30;;
35056;SDS011;21241;51.828;19.574;2023-07-31T00:28:11;4.70;;;4.30;;
35056;SDS011;21241;51.828;19.574;2023-07-31T00:30:39;5.00;;;4.50;;
35056;SDS011;21241;51.828;19.574;2023-07-31T00:33:07;4.70;;;4.30;;
35056;SDS011;21241;51.828;19.574;2023-07-31T00:35:37;4.90;;;4.50;;
35056;SDS011;21241;51.828;19.574;2023-07-31T00:38:05;4.70;;;4.40;;
35056;SDS011;21241;51.828;19.574;2023-07-31T00:40:36;4.90;;;4.50;;
35056;SDS011;21241;51.828;19.574;2023-07-31T00:43:05;5.80;;;5.30;;
35056;SDS011;21241;51.828;19.574;2023-07-31T00:45:35;4.90;;;4.50;;
35056;SDS011;21241;51.828;19.574;2023-07-31T00:48:03;5.60;;;5.10;;
35056;SDS011;21241;51.828;19.574;2023-07-31T00:50:34;5.80;;;5.20;;
35056;SDS011;21241;51.828;19.574;2023-07-31T00:53:02;5.50;;;5.10;;
35056;SDS011;21241;51.828;19.574;2023-07-31T00:55:30;5.20;;;4.70;;
35056;SDS011;21241;51.828;19.574;2023-07-31T00:57:58;6.50;;;5.50;;
35056;SDS011;21241;51.828;19.574;2023-07-31T01:00:26;5.70;;;5.20;;
35056;SDS011;21241;51.828;19.574;2023-07-31T01:02:54;5.20;;;4.90;;
35056;SDS011;21241;51.828;19.574;2023-07-31T01:05:28;5.90;;;5.40;;
35056;SDS011;21241;51.828;19.574;2023-07-31T01:08:19;6.80;;;5.20;;
35056;SDS011;21241;51.828;19.574;2023-07-31T01:10:50;6.10;;;5.70;;
35056;SDS011;21241;51.828;19.574;2023-07-31T01:13:28;6.00;;;5.50;;
35056;SDS011;21241;51.828;19.574;2023-07-31T01:15:56;5.90;;;5.40;;
35056;SDS011;21241;51.828;19.574;2023-07-31T01:18:23;6.40;;;5.80;;
35056;SDS011;21241;51.828;19.574;2023-07-31T01:20:57;5.90;;;5.40;;
35056;SDS011;21241;51.828;19.574;2023-07-31T01:24:08;5.50;;;5.20;;
35056;SDS011;21241;51.828;19.574;2023-07-31T01:27:09;6.30;;;5.80;;
35056;SDS011;21241;51.828;19.574;2023-07-31T01:29:43;5.80;;;5.40;;
35056;SDS011;21241;51.828;19.574;2023-07-31T01:32:15;5.60;;;5.20;;
35056;SDS011;21241;51.828;19.574;2023-07-31T01:34:45;5.00;;;4.60;;
35056;SDS011;21241;51.828;19.574;2023-07-31T01:37:13;5.00;;;4.60;;
35056;SDS011;21241;51.828;19.574;2023-07-31T01:39:41;4.80;;;4.50;;
35056;SDS011;21241;51.828;19.574;2023-07-31T01:42:09;4.70;;;4.30;;
35056;SDS011;21241;51.828;19.574;2023-07-31T01:44:36;5.00;;;4.60;;
35056;SDS011;21241;51.828;19.574;2023-07-31T01:47:05;4.90;;;4.50;;
35056;SDS011;21241;51.828;19.574;2023-07-31T01:49:33;4.80;;;4.40;;
35056;SDS011;21241;51.828;19.574;2023-07-31T01:52:01;4.90;;;4.50;;
35056;SDS011;21241;51.828;19.574;2023-07-31T01:54:28;4.60;;;4.30;;
35056;SDS011;21241;51.828;19.574;2023-07-31T01:56:56;4.50;;;4.10;;
35056;SDS011;21241;51.828;19.574;2023-07-31T01:59:24;4.70;;;4.20;;
35056;SDS011;21241;51.828;19.574;2023-07-31T02:01:52;3.90;;;3.70;;
35056;SDS011;21241;51.828;19.574;2023-07-31T02:04:21;4.30;;;4.00;;
35056;SDS011;21241;51.828;19.574;2023-07-31T02:06:49;4.00;;;3.70;;
35056;SDS011;21241;51.828;19.574;2023-07-31T02:09:17;4.30;;;4.00;;
35056;SDS011;21241;51.828;19.574;2023-07-31T02:11:44;4.60;;;4.20;;
35056;SDS011;21241;51.828;19.574;2023-07-31T02:14:12;4.00;;;3.70;;
35056;SDS011;21241;51.828;19.574;2023-07-31T02:16:40;4.20;;;3.90;;
35056;SDS011;21241;51.828;19.574;2023-07-31T02:19:10;4.10;;;3.80;;
35056;SDS011;21241;51.828;19.574;2023-07-31T02:21:38;4.10;;;3.90;;
35056;SDS011;21241;51.828;19.574;2023-07-31T02:24:06;4.20;;;3.90;;
35056;SDS011;21241;51.828;19.574;2023-07-31T02:26:34;4.20;;;3.80;;
35056;SDS011;21241;51.828;19.574;2023-07-31T02:29:02;5.30;;;4.30;;
35056;SDS011;21241;51.828;19.574;2023-07-31T02:31:31;4.40;;;4.00;;
35056;SDS011;21241;51.828;19.574;2023-07-31T02:33:59;3.70;;;3.50;;
35056;SDS011;21241;51.828;19.574;2023-07-31T02:36:27;4.50;;;4.10;;
35056;SDS011;21241;51.828;19.574;2023-07-31T02:38:56;4.00;;;3.60;;
35056;SDS011;21241;51.828;19.574;2023-07-31T02:41:23;4.30;;;3.90;;
35056;SDS011;21241;51.828;19.574;2023-07-31T02:43:51;4.30;;;3.90;;
35056;SDS011;21241;51.828;19.574;2023-07-31T02:46:20;5.40;;;3.80;;
35056;SDS011;21241;51.828;19.574;2023-07-31T02:48:52;4.00;;;3.70;;
35056;SDS011;21241;51.828;19.574;2023-07-31T02:51:20;4.20;;;3.90;;
35056;SDS011;21241;51.828;19.574;2023-07-31T02:53:48;3.70;;;3.40;;
35056;SDS011;21241;51.828;19.574;2023-07-31T02:56:17;4.00;;;3.60;;
35056;SDS011;21241;51.828;19.574;2023-07-31T02:58:45;4.40;;;4.10;;
35056;SDS011;21241;51.828;19.574;2023-07-31T03:01:13;4.20;;;3.80;;
35056;SDS011;21241;51.828;19.574;2023-07-31T03:03:41;7.00;;;4.60;;
35056;SDS011;21241;51.828;19.574;2023-07-31T03:06:09;4.90;;;4.40;;
35056;SDS011;21241;51.828;19.574;2023-07-31T03:08:37;4.40;;;4.00;;
35056;SDS011;21241;51.828;19.574;2023-07-31T03:11:05;4.40;;;4.00;;
35056;SDS011;21241;51.828;19.574;2023-07-31T03:13:32;4.00;;;3.60;;
35056;SDS011;21241;51.828;19.574;2023-07-31T03:16:00;4.60;;;3.70;;
35056;SDS011;21241;51.828;19.574;2023-07-31T03:18:28;3.80;;;3.50;;
35056;SDS011;21241;51.828;19.574;2023-07-31T03:20:56;4.60;;;4.10;;
35056;SDS011;21241;51.828;19.574;2023-07-31T03:23:24;4.20;;;3.60;;
35056;SDS011;21241;51.828;19.574;2023-07-31T03:26:01;4.30;;;3.90;;
35056;SDS011;21241;51.828;19.574;2023-07-31T03:28:31;4.20;;;3.80;;
35056;SDS011;21241;51.828;19.574;2023-07-31T03:30:59;4.50;;;4.10;;
35056;SDS011;21241;51.828;19.574;2023-07-31T03:33:27;4.20;;;3.80;;
35056;SDS011;21241;51.828;19.574;2023-07-31T03:35:55;4.30;;;3.90;;
35056;SDS011;21241;51.828;19.574;2023-07-31T03:38:22;4.70;;;4.00;;
35056;SDS011;21241;51.828;19.574;2023-07-31T03:40:50;5.10;;;4.60;;
35056;SDS011;21241;51.828;19.574;2023-07-31T03:43:18;4.40;;;4.10;;
35056;SDS011;21241;51.828;19.574;2023-07-31T03:45:45;5.00;;;4.60;;
35056;SDS011;21241;51.828;19.574;2023-07-31T03:48:15;4.80;;;4.50;;
35056;SDS011;21241;51.828;19.574;2023-07-31T03:50:44;5.10;;;4.70;;
35056;SDS011;21241;51.828;19.574;2023-07-31T03:53:11;4.90;;;4.50;;
35056;SDS011;21241;51.828;19.574;2023-07-31T03:55:39;4.40;;;4.00;;
35056;SDS011;21241;51.828;19.574;2023-07-31T03:58:07;4.80;;;4.30;;
35056;SDS011;21241;51.828;19.574;2023-07-31T04:00:35;5.50;;;5.10;;
35056;SDS011;21241;51.828;19.574;2023-07-31T04:03:02;4.90;;;4.50;;
35056;SDS011;21241;51.828;19.574;2023-07-31T04:05:31;5.40;;;4.90;;
35056;SDS011;21241;51.828;19.574;2023-07-31T04:08:00;5.40;;;4.90;;
35056;SDS011;21241;51.828;19.574;2023-07-31T04:10:27;6.00;;;5.60;;
35056;SDS011;21241;51.828;19.574;2023-07-31T04:12:55;5.10;;;4.70;;
35056;SDS011;21241;51.828;19.574;2023-07-31T04:15:23;6.10;;;5.60;;
35056;SDS011;21241;51.828;19.574;2023-07-31T04:17:50;6.00;;;5.40;;
35056;SDS011;21241;51.828;19.574;2023-07-31T04:20:19;6.40;;;5.80;;
35056;SDS011;21241;51.828;19.574;2023-07-31T04:22:47;5.50;;;5.00;;
35056;SDS011;21241;51.828;19.574;2023-07-31T04:25:14;6.10;;;5.60;;
35056;SDS011;21241;51.828;19.574;2023-07-31T04:27:42;5.70;;;5.20;;
35056;SDS011;21241;51.828;19.574;2023-07-31T04:30:10;5.30;;;4.90;;
35056;SDS011;21241;51.828;19.574;2023-07-31T04:32:37;5.50;;;5.00;;
35056;SDS011;21241;51.828;19.574;2023-07-31T04:35:05;5.50;;;5.00;;
35056;SDS011;21241;51.828;19.574;2023-07-31T04:37:33;5.50;;;5.00;;
35056;SDS011;21241;51.828;19.574;2023-07-31T04:40:01;6.20;;;5.70;;
35056;SDS011;21241;51.828;19.574;2023-07-31T04:42:28;6.10;;;5.60;;
35056;SDS011;21241;51.828;19.574;2023-07-31T04:44:56;5.20;;;4.80;;
35056;SDS011;21241;51.828;19.574;2023-07-31T04:47:24;5.90;;;5.20;;
35056;SDS011;21241;51.828;19.574;2023-07-31T04:49:51;5.70;;;5.30;;
35056;SDS011;21241;51.828;19.574;2023-07-31T04:52:19;5.60;;;5.20;;
35056;SDS011;21241;51.828;19.574;2023-07-31T04:54:47;5.10;;;4.70;;
35056;SDS011;21241;51.828;19.574;2023-07-31T04:57:14;5.50;;;5.00;;
35056;SDS011;21241;51.828;19.574;2023-07-31T04:59:42;5.80;;;5.20;;
35056;SDS011;21241;51.828;19.574;2023-07-31T05:02:11;5.30;;;4.90;;
35056;SDS011;21241;51.828;19.574;2023-07-31T05:04:39;5.60;;;5.10;;
35056;SDS011;21241;51.828;19.574;2023-07-31T05:07:07;5.60;;;5.10;;
35056;SDS011;21241;51.828;19.574;2023-07-31T05:09:34;5.90;;;5.50;;
35056;SDS011;21241;51.828;19.574;2023-07-31T05:12:04;5.30;;;4.90;;
35056;SDS011;21241;51.828;19.574;2023-07-31T05:14:32;5.60;;;5.10;;
35056;SDS011;21241;51.828;19.574;2023-07-31T05:16:59;5.40;;;4.90;;
35056;SDS011;21241;51.828;19.574;2023-07-31T05:19:27;5.30;;;4.90;;
35056;SDS011;21241;51.828;19.574;2023-07-31T05:21:55;5.00;;;4.60;;
35056;SDS011;21241;51.828;19.574;2023-07-31T05:24:22;5.70;;;5.30;;
35056;SDS011;21241;51.828;19.574;2023-07-31T05:26:50;5.60;;;5.10;;
35056;SDS011;21241;51.828;19.574;2023-07-31T05:29:18;5.00;;;4.60;;
35056;SDS011;21241;51.828;19.574;2023-07-31T05:31:46;5.30;;;4.90;;
35056;SDS011;21241;51.828;19.574;2023-07-31T05:34:14;5.20;;;4.70;;
35056;SDS011;21241;51.828;19.574;2023-07-31T05:36:41;5.60;;;4.50;;
35056;SDS011;21241;51.828;19.574;2023-07-31T05:39:09;5.10;;;4.70;;
35056;SDS011;21241;51.828;19.574;2023-07-31T05:41:37;5.10;;;4.60;;
35056;SDS011;21241;51.828;19.574;2023-07-31T05:44:04;5.00;;;4.50;;
35056;SDS011;21241;51.828;19.574;2023-07-31T05:46:32;5.00;;;4.50;;
35056;SDS011;21241;51.828;19.574;2023-07-31T05:49:00;5.20;;;4.70;;
35056;SDS011;21241;51.828;19.574;2023-07-31T05:51:28;4.80;;;4.40;;
35056;SDS011;21241;51.828;19.574;2023-07-31T05:53:56;5.30;;;4.80;;
35056;SDS011;21241;51.828;19.574;2023-07-31T05:56:24;4.70;;;4.30;;
35056;SDS011;21241;51.828;19.574;2023-07-31T05:58:51;6.40;;;4.60;;
35056;SDS011;21241;51.828;19.574;2023-07-31T06:01:19;5.20;;;4.80;;
35056;SDS011;21241;51.828;19.574;2023-07-31T06:03:48;6.20;;;4.80;;
35056;SDS011;21241;51.828;19.574;2023-07-31T06:06:16;4.70;;;4.20;;
35056;SDS011;21241;51.828;19.574;2023-07-31T06:08:44;5.10;;;4.70;;
35056;SDS011;21241;51.828;19.574;2023-07-31T06:11:12;5.00;;;4.50;;
35056;SDS011;21241;51.828;19.574;2023-07-31T06:13:39;5.40;;;5.00;;
35056;SDS011;21241;51.828;19.574;2023-07-31T06:16:10;4.50;;;4.10;;
35056;SDS011;21241;51.828;19.574;2023-07-31T06:18:38;5.00;;;4.60;;
35056;SDS011;21241;51.828;19.574;2023-07-31T06:21:06;5.30;;;4.70;;
35056;SDS011;21241;51.828;19.574;2023-07-31T06:23:33;5.70;;;5.20;;
35056;SDS011;21241;51.828;19.574;2023-07-31T06:26:01;5.70;;;4.70;;
35056;SDS011;21241;51.828;19.574;2023-07-31T06:28:29;5.00;;;4.60;;
35056;SDS011;21241;51.828;19.574;2023-07-31T06:30:58;5.00;;;4.30;;
35056;SDS011;21241;51.828;19.574;2023-07-31T06:33:26;4.20;;;3.90;;
35056;SDS011;21241;51.828;19.574;2023-07-31T06:35:54;5.70;;;4.90;;
35056;SDS011;21241;51.828;19.574;2023-07-31T06:38:24;4.90;;;4.20;;
35056;SDS011;21241;51.828;19.574;2023-07-31T06:40:53;4.70;;;4.30;;
35056;SDS011;21241;51.828;19.574;2023-07-31T06:43:20;5.00;;;4.20;;
35056;SDS011;21241;51.828;19.574;2023-07-31T06:45:48;4.70;;;4.20;;
35056;SDS011;21241;51.828;19.574;2023-07-31T06:48:19;5.20;;;4.70;;
35056;SDS011;21241;51.828;19.574;2023-07-31T06:50:46;4.40;;;4.10;;
35056;SDS011;21241;51.828;19.574;2023-07-31T06:53:14;4.90;;;4.40;;
35056;SDS011;21241;51.828;19.574;2023-07-31T06:55:42;5.40;;;4.80;;
35056;SDS011;21241;51.828;19.574;2023-07-31T06:58:09;4.20;;;3.80;;
35056;SDS011;21241;51.828;19.574;2023-07-31T07:00:37;4.50;;;4.10;;
35056;SDS011;21241;51.828;19.574;2023-07-31T07:03:05;4.50;;;4.10;;
35056;SDS011;21241;51.828;19.574;2023-07-31T07:05:33;4.80;;;4.40;;
35056;SDS011;21241;51.828;19.574;2023-07-31T07:08:01;4.60;;;4.10;;
35056;SDS011;21241;51.828;19.574;2023-07-31T07:10:28;5.10;;;4.40;;
35056;SDS011;21241;51.828;19.574;2023-07-31T07:12:56;5.30;;;4.20;;
35056;SDS011;21241;51.828;19.574;2023-07-31T07:15:24;5.20;;;4.30;;
35056;SDS011;21241;51.828;19.574;2023-07-31T07:17:52;4.40;;;3.80;;
35056;SDS011;21241;51.828;19.574;2023-07-31T07:20:19;5.30;;;4.80;;
35056;SDS011;21241;51.828;19.574;2023-07-31T07:22:47;3.80;;;3.50;;
35056;SDS011;21241;51.828;19.574;2023-07-31T07:25:15;4.30;;;3.90;;
35056;SDS011;21241;51.828;19.574;2023-07-31T07:27:43;4.20;;;3.80;;
35056;SDS011;21241;51.828;19.574;2023-07-31T07:30:11;4.20;;;3.80;;
35056;SDS011;21241;51.828;19.574;2023-07-31T07:32:39;3.70;;;3.30;;
35056;SDS011;21241;51.828;19.574;2023-07-31T07:35:07;4.20;;;3.70;;
35056;SDS011;21241;51.828;19.574;2023-07-31T07:37:35;3.90;;;3.30;;
35056;SDS011;21241;51.828;19.574;2023-07-31T07:40:03;4.20;;;3.80;;
35056;SDS011;21241;51.828;19.574;2023-07-31T07:42:31;4.90;;;4.40;;
35056;SDS011;21241;51.828;19.574;2023-07-31T07:44:59;4.30;;;3.80;;
35056;SDS011;21241;51.828;19.574;2023-07-31T07:47:26;4.10;;;3.70;;
35056;SDS011;21241;51.828;19.574;2023-07-31T07:49:56;4.40;;;3.80;;
35056;SDS011;21241;51.828;19.574;2023-07-31T07:52:23;3.60;;;3.30;;
35056;SDS011;21241;51.828;19.574;2023-07-31T07:54:51;4.00;;;3.60;;
35056;SDS011;21241;51.828;19.574;2023-07-31T07:57:19;4.50;;;3.30;;
35056;SDS011;21241;51.828;19.574;2023-07-31T07:59:46;3.50;;;2.90;;
35056;SDS011;21241;51.828;19.574;2023-07-31T08:02:14;3.20;;;2.90;;
35056;SDS011;21241;51.828;19.574;2023-07-31T08:04:42;4.00;;;3.00;;
35056;SDS011;21241;51.828;19.574;2023-07-31T08:07:12;2.80;;;2.60;;
35056;SDS011;21241;51.828;19.574;2023-07-31T08:09:40;3.40;;;3.00;;
35056;SDS011;21241;51.828;19.574;2023-07-31T08:12:08;3.50;;;2.70;;
35056;SDS011;21241;51.828;19.574;2023-07-31T08:14:36;3.50;;;2.80;;
35056;SDS011;21241;51.828;19.574;2023-07-31T08:17:04;3.40;;;2.90;;
35056;SDS011;21241;51.828;19.574;2023-07-31T08:19:32;4.10;;;3.10;;
35056;SDS011;21241;51.828;19.574;2023-07-31T08:22:00;3.50;;;3.20;;
35056;SDS011;21241;51.828;19.574;2023-07-31T08:24:28;3.60;;;2.90;;
35056;SDS011;21241;51.828;19.574;2023-07-31T08:26:55;3.40;;;2.90;;
35056;SDS011;21241;51.828;19.574;2023-07-31T08:29:23;3.60;;;3.10;;
35056;SDS011;21241;51.828;19.574;2023-07-31T08:31:51;4.80;;;4.20;;
35056;SDS011;21241;51.828;19.574;2023-07-31T08:34:19;5.60;;;4.20;;
35056;SDS011;21241;51.828;19.574;2023-07-31T08:36:46;3.60;;;2.90;;
35056;SDS011;21241;51.828;19.574;2023-07-31T08:39:14;2.90;;;2.70;;
35056;SDS011;21241;51.828;19.574;2023-07-31T08:41:42;3.30;;;3.00;;
35056;SDS011;21241;51.828;19.574;2023-07-31T08:44:11;4.00;;;3.40;;
35056;SDS011;21241;51.828;19.574;2023-07-31T08:46:39;4.60;;;3.40;;
35056;SDS011;21241;51.828;19.574;2023-07-31T08:49:07;4.20;;;2.90;;
35056;SDS011;21241;51.828;19.574;2023-07-31T08:51:37;3.50;;;2.60;;
35056;SDS011;21241;51.828;19.574;2023-07-31T08:54:05;3.20;;;2.90;;
35056;SDS011;21241;51.828;19.574;2023-07-31T08:56:33;3.10;;;2.80;;
35056;SDS011;21241;51.828;19.574;2023-07-31T08:59:02;4.40;;;3.10;;
35056;SDS011;21241;51.828;19.574;2023-07-31T09:01:31;3.20;;;2.60;;
35056;SDS011;21241;51.828;19.574;2023-07-31T09:04:04;3.00;;;2.80;;
35056;SDS011;21241;51.828;19.574;2023-07-31T09:06:33;4.20;;;3.10;;
35056;SDS011;21241;51.828;19.574;2023-07-31T09:09:01;2.80;;;2.50;;
35056;SDS011;21241;51.828;19.574;2023-07-31T09:11:30;3.30;;;2.40;;
35056;SDS011;21241;51.828;19.574;2023-07-31T09:13:58;2.90;;;2.40;;
35056;SDS011;21241;51.828;19.574;2023-07-31T09:16:29;5.10;;;2.90;;
35056;SDS011;21241;51.828;19.574;2023-07-31T09:19:00;3.50;;;3.20;;
35056;SDS011;21241;51.828;19.574;2023-07-31T09:21:30;3.20;;;2.40;;
35056;SDS011;21241;51.828;19.574;2023-07-31T09:23:58;3.40;;;2.80;;
35056;SDS011;21241;51.828;19.574;2023-07-31T09:26:29;4.20;;;2.40;;
35056;SDS011;21241;51.828;19.574;2023-07-31T09:29:01;3.70;;;2.80;;
35056;SDS011;21241;51.828;19.574;2023-07-31T09:31:41;3.40;;;2.70;;
35056;SDS011;21241;51.828;19.574;2023-07-31T09:34:10;4.50;;;2.90;;
35056;SDS011;21241;51.828;19.574;2023-07-31T09:36:44;3.60;;;2.70;;
35056;SDS011;21241;51.828;19.574;2023-07-31T09:39:14;3.20;;;2.70;;
35056;SDS011;21241;51.828;19.574;2023-07-31T09:41:44;4.70;;;2.90;;
35056;SDS011;21241;51.828;19.574;2023-07-31T09:44:15;3.10;;;2.60;;
35056;SDS011;21241;51.828;19.574;2023-07-31T09:46:43;4.40;;;3.80;;
35056;SDS011;21241;51.828;19.574;2023-07-31T09:49:12;3.30;;;2.80;;
35056;SDS011;21241;51.828;19.574;2023-07-31T09:51:41;5.10;;;2.90;;
35056;SDS011;21241;51.828;19.574;2023-07-31T09:54:10;4.30;;;3.20;;
35056;SDS011;21241;51.828;19.574;2023-07-31T09:56:46;3.50;;;3.10;;
35056;SDS011;21241;51.828;19.574;2023-07-31T09:59:16;3.40;;;3.10;;
35056;SDS011;21241;51.828;19.574;2023-07-31T10:01:50;4.00;;;2.50;;
35056;SDS011;21241;51.828;19.574;2023-07-31T10:04:20;3.90;;;2.60;;
35056;SDS011;21241;51.828;19.574;2023-07-31T10:06:53;3.90;;;3.40;;
35056;SDS011;21241;51.828;19.574;2023-07-31T10:09:21;2.80;;;2.50;;
35056;SDS011;21241;51.828;19.574;2023-07-31T10:11:53;3.90;;;2.90;;
35056;SDS011;21241;51.828;19.574;2023-07-31T10:14:24;3.90;;;3.00;;
35056;SDS011;21241;51.828;19.574;2023-07-31T10:16:51;3.60;;;2.90;;
35056;SDS011;21241;51.828;19.574;2023-07-31T10:19:20;2.80;;;2.60;;
35056;SDS011;21241;51.828;19.574;2023-07-31T10:21:49;2.80;;;2.60;;
35056;SDS011;21241;51.828;19.574;2023-07-31T10:24:17;4.90;;;3.50;;
35056;SDS011;21241;51.828;19.574;2023-07-31T10:26:45;5.40;;;2.90;;
35056;SDS011;21241;51.828;19.574;2023-07-31T10:29:14;3.10;;;2.60;;
35056;SDS011;21241;51.828;19.574;2023-07-31T10:31:43;4.40;;;3.00;;
35056;SDS011;21241;51.828;19.574;2023-07-31T10:34:12;3.50;;;2.80;;
35056;SDS011;21241;51.828;19.574;2023-07-31T10:36:40;4.20;;;2.70;;
35056;SDS011;21241;51.828;19.574;2023-07-31T10:39:55;3.10;;;2.80;;
35056;SDS011;21241;51.828;19.574;2023-07-31T10:42:14;4.00;;;2.80;;
35056;SDS011;21241;51.828;19.574;2023-07-31T10:44:46;4.70;;;2.50;;
35056;SDS011;21241;51.828;19.574;2023-07-31T10:47:14;3.20;;;2.90;;
35056;SDS011;21241;51.828;19.574;2023-07-31T10:49:44;4.80;;;2.90;;
35056;SDS011;21241;51.828;19.574;2023-07-31T10:52:13;3.40;;;2.50;;
35056;SDS011;21241;51.828;19.574;2023-07-31T10:54:41;3.70;;;3.00;;
35056;SDS011;21241;51.828;19.574;2023-07-31T10:57:19;3.30;;;2.50;;
35056;SDS011;21241;51.828;19.574;2023-07-31T10:59:48;5.20;;;3.00;;
35056;SDS011;21241;51.828;19.574;2023-07-31T11:02:24;3.30;;;2.50;;
35056;SDS011;21241;51.828;19.574;2023-07-31T11:05:07;3.30;;;2.50;;
35056;SDS011;21241;51.828;19.574;2023-07-31T11:07:50;3.90;;;2.60;;
35056;SDS011;21241;51.828;19.574;2023-07-31T11:10:18;3.80;;;2.30;;
35056;SDS011;21241;51.828;19.574;2023-07-31T11:12:46;3.60;;;2.50;;
35056;SDS011;21241;51.828;19.574;2023-07-31T11:15:15;4.00;;;2.70;;
35056;SDS011;21241;51.828;19.574;2023-07-31T11:17:42;2.80;;;2.40;;
35056;SDS011;21241;51.828;19.574;2023-07-31T11:20:10;3.10;;;2.10;;
35056;SDS011;21241;51.828;19.574;2023-07-31T11:22:38;2.20;;;2.00;;
35056;SDS011;21241;51.828;19.574;2023-07-31T11:25:06;3.20;;;2.10;;
35056;SDS011;21241;51.828;19.574;2023-07-31T11:27:41;3.80;;;2.30;;
35056;SDS011;21241;51.828;19.574;2023-07-31T11:30:10;2.90;;;2.60;;
35056;SDS011;21241;51.828;19.574;2023-07-31T11:32:38;5.90;;;2.70;;
35056;SDS011;21241;51.828;19.574;2023-07-31T11:35:06;2.90;;;2.60;;
35056;SDS011;21241;51.828;19.574;2023-07-31T11:37:40;3.80;;;2.90;;
35056;SDS011;21241;51.828;19.574;2023-07-31T11:40:09;3.60;;;2.40;;
35056;SDS011;21241;51.828;19.574;2023-07-31T11:42:37;2.80;;;2.40;;
35056;SDS011;21241;51.828;19.574;2023-07-31T11:45:06;5.20;;;3.20;;
35056;SDS011;21241;51.828;19.574;2023-07-31T11:47:35;3.40;;;2.50;;
35056;SDS011;21241;51.828;19.574;2023-07-31T11:50:05;2.60;;;2.30;;
35056;SDS011;21241;51.828;19.574;2023-07-31T11:52:36;2.50;;;2.30;;
35056;SDS011;21241;51.828;19.574;2023-07-31T11:55:06;3.80;;;2.70;;
35056;SDS011;21241;51.828;19.574;2023-07-31T11:57:38;2.70;;;2.50;;
35056;SDS011;21241;51.828;19.574;2023-07-31T12:00:07;4.50;;;2.70;;
35056;SDS011;21241;51.828;19.574;2023-07-31T12:02:38;4.00;;;2.40;;
35056;SDS011;21241;51.828;19.574;2023-07-31T12:05:11;4.30;;;2.80;;
35056;SDS011;21241;51.828;19.574;2023-07-31T12:07:58;3.90;;;2.90;;
35056;SDS011;21241;51.828;19.574;2023-07-31T12:10:30;3.80;;;2.90;;
35056;SDS011;21241;51.828;19.574;2023-07-31T12:15:32;4.00;;;2.90;;
35056;SDS011;21241;51.828;19.574;2023-07-31T12:18:08;4.00;;;2.70;;
35056;SDS011;21241;51.828;19.574;2023-07-31T12:20:44;5.50;;;2.80;;
35056;SDS011;21241;51.828;19.574;2023-07-31T12:23:17;3.80;;;2.70;;
35056;SDS011;21241;51.828;19.574;2023-07-31T12:25:46;3.40;;;2.70;;
35056;SDS011;21241;51.828;19.574;2023-07-31T12:28:14;3.60;;;2.50;;
35056;SDS011;21241;51.828;19.574;2023-07-31T12:30:41;3.90;;;2.90;;
35056;SDS011;21241;51.828;19.574;2023-07-31T12:33:13;3.20;;;2.90;;
35056;SDS011;21241;51.828;19.574;2023-07-31T12:35:43;4.00;;;2.10;;
35056;SDS011;21241;51.828;19.574;2023-07-31T12:38:12;3.50;;;2.60;;
35056;SDS011;21241;51.828;19.574;2023-07-31T12:40:41;2.80;;;2.60;;
35056;SDS011;21241;51.828;19.574;2023-07-31T12:43:09;3.10;;;2.50;;
35056;SDS011;21241;51.828;19.574;2023-07-31T12:45:37;3.10;;;2.70;;
35056;SDS011;21241;51.828;19.574;2023-07-31T12:48:05;3.80;;;2.60;;
35056;SDS011;21241;51.828;19.574;2023-07-31T12:50:33;5.60;;;2.40;;
35056;SDS011;21241;51.828;19.574;2023-07-31T12:53:00;3.30;;;2.50;;
35056;SDS011;21241;51.828;19.574;2023-07-31T12:55:28;3.50;;;2.40;;
35056;SDS011;21241;51.828;19.574;2023-07-31T12:57:57;2.70;;;2.40;;
35056;SDS011;21241;51.828;19.574;2023-07-31T13:00:25;3.90;;;2.90;;
35056;SDS011;21241;51.828;19.574;2023-07-31T13:02:53;3.40;;;2.50;;
35056;SDS011;21241;51.828;19.574;2023-07-31T13:05:22;3.20;;;2.00;;
35056;SDS011;21241;51.828;19.574;2023-07-31T13:07:50;3.00;;;2.20;;
35056;SDS011;21241;51.828;19.574;2023-07-31T13:10:20;2.70;;;2.20;;
35056;SDS011;21241;51.828;19.574;2023-07-31T13:12:47;3.50;;;2.70;;
35056;SDS011;21241;51.828;19.574;2023-07-31T13:15:15;4.30;;;2.40;;
35056;SDS011;21241;51.828;19.574;2023-07-31T13:17:45;2.60;;;2.40;;
35056;SDS011;21241;51.828;19.574;2023-07-31T13:20:13;4.60;;;2.80;;
35056;SDS011;21241;51.828;19.574;2023-07-31T13:22:41;2.80;;;2.10;;
35056;SDS011;21241;51.828;19.574;2023-07-31T13:25:13;3.80;;;2.30;;
35056;SDS011;21241;51.828;19.574;2023-07-31T13:27:40;2.80;;;2.30;;
35056;SDS011;21241;51.828;19.574;2023-07-31T13:30:08;3.60;;;2.40;;
35056;SDS011;21241;51.828;19.574;2023-07-31T13:32:36;3.80;;;2.70;;
35056;SDS011;21241;51.828;19.574;2023-07-31T13:35:07;4.00;;;2.90;;
35056;SDS011;21241;51.828;19.574;2023-07-31T13:37:35;3.90;;;2.10;;
35056;SDS011;21241;51.828;19.574;2023-07-31T13:40:03;3.60;;;2.40;;
35056;SDS011;21241;51.828;19.574;2023-07-31T13:42:33;4.20;;;2.50;;
35056;SDS011;21241;51.828;19.574;2023-07-31T13:45:00;2.70;;;2.00;;
35056;SDS011;21241;51.828;19.574;2023-07-31T13:47:33;2.90;;;2.50;;
35056;SDS011;21241;51.828;19.574;2023-07-31T13:50:02;2.60;;;2.20;;
35056;SDS011;21241;51.828;19.574;2023-07-31T13:52:30;3.30;;;2.60;;
35056;SDS011;21241;51.828;19.574;2023-07-31T13:54:58;3.00;;;2.20;;
35056;SDS011;21241;51.828;19.574;2023-07-31T13:57:26;2.60;;;2.40;;
35056;SDS011;21241;51.828;19.574;2023-07-31T13:59:53;3.40;;;2.50;;
35056;SDS011;21241;51.828;19.574;2023-07-31T14:02:21;3.50;;;2.20;;
35056;SDS011;21241;51.828;19.574;2023-07-31T14:04:49;3.00;;;2.00;;
35056;SDS011;21241;51.828;19.574;2023-07-31T14:07:16;2.50;;;2.30;;
35056;SDS011;21241;51.828;19.574;2023-07-31T14:09:45;3.00;;;2.40;;
35056;SDS011;21241;51.828;19.574;2023-07-31T14:12:13;3.70;;;2.70;;
35056;SDS011;21241;51.828;19.574;2023-07-31T14:14:58;3.30;;;2.80;;
35056;SDS011;21241;51.828;19.574;2023-07-31T14:17:26;4.60;;;2.80;;
35056;SDS011;21241;51.828;19.574;2023-07-31T14:19:54;5.10;;;2.60;;
35056;SDS011;21241;51.828;19.574;2023-07-31T14:22:29;3.80;;;2.60;;
35056;SDS011;21241;51.828;19.574;2023-07-31T14:24:57;3.80;;;2.50;;
35056;SDS011;21241;51.828;19.574;2023-07-31T14:27:25;3.20;;;2.80;;
35056;SDS011;21241;51.828;19.574;2023-07-31T14:29:53;2.60;;;2.30;;
35056;SDS011;21241;51.828;19.574;2023-07-31T14:32:21;3.30;;;2.80;;
35056;SDS011;21241;51.828;19.574;2023-07-31T14:34:51;7.30;;;3.40;;
35056;SDS011;21241;51.828;19.574;2023-07-31T14:37:19;4.30;;;2.40;;
35056;SDS011;21241;51.828;19.574;2023-07-31T14:39:47;4.10;;;2.50;;
35056;SDS011;21241;51.828;19.574;2023-07-31T14:42:14;2.90;;;2.50;;
35056;SDS011;21241;51.828;19.574;2023-07-31T14:44:44;3.60;;;2.60;;
35056;SDS011;21241;51.828;19.574;2023-07-31T14:47:11;2.70;;;2.20;;